Time;durP1;ratioP1;P1;durP2;ratioP2;P2;SDS_P1;SDS_P2;PMS_P1;PMS_P2;Temp;Humidity;BMP_temperature;BMP_pressure;BME280_temperature;BME280_humidity;BME280_pressure;Samples;Min_cycle;Max_cycle;Signal;HPM_P1;HPM_P2
2022/10/19 03:06:37;;;;;;;42.40;35.43;;;15.00;99.90;;;;;;5521422;23;20501;-69
2022/10/19 03:09:07;;;;;;;41.67;37.47;;;15.20;99.90;;;;;;4954032;29;20485;-72
2022/10/19 03:11:35;;;;;;;44.50;39.87;;;15.20;99.90;;;;;;4954640;29;20448;-72
2022/10/19 03:14:02;;;;;;;41.73;36.17;;;;;;;;;;4954221;29;20452;-72
2022/10/19 03:16:29;;;;;;;39.17;35.07;;;15.10;99.90;;;;;;4954179;29;20460;-72
2022/10/19 03:18:55;;;;;;;36.97;33.17;;;15.20;99.90;;;;;;4954078;29;20541;-71
2022/10/19 03:21:22;;;;;;;44.73;37.60;;;15.20;99.90;;;;;;4954081;29;20727;-70
2022/10/19 03:23:50;;;;;;;38.53;34.37;;;15.10;99.90;;;;;;4954130;29;20460;-72
2022/10/19 03:26:17;;;;;;;45.93;37.57;;;15.10;99.90;;;;;;4952507;29;20460;-72
2022/10/19 03:28:44;;;;;;;39.83;35.50;;;15.10;99.90;;;;;;4953591;29;20456;-72
2022/10/19 03:31:11;;;;;;;42.70;35.70;;;15.10;99.90;;;;;;4953028;28;20460;-72
2022/10/19 03:33:38;;;;;;;37.73;33.73;;;15.10;99.90;;;;;;4953455;29;20452;-72
2022/10/19 03:36:20;;;;;;;34.60;31.53;;;15.10;99.90;;;;;;4953641;29;20445;-72
2022/10/19 03:38:50;;;;;;;35.20;31.87;;;15.20;99.90;;;;;;4953703;29;20463;-72
2022/10/19 03:41:17;;;;;;;35.47;32.37;;;15.20;99.90;;;;;;4953413;29;20551;-73
2022/10/19 03:43:44;;;;;;;36.60;32.33;;;15.20;99.90;;;;;;4953256;29;20966;-73
2022/10/19 03:46:10;;;;;;;35.17;31.47;;;15.10;99.90;;;;;;4953323;29;20751;-72
2022/10/19 03:48:37;;;;;;;35.13;31.63;;;15.20;99.90;;;;;;4953303;29;20460;-72
2022/10/19 03:51:06;;;;;;;36.67;33.13;;;15.20;99.90;;;;;;4953496;29;20464;-72
2022/10/19 03:53:33;;;;;;;37.77;34.27;;;15.20;99.90;;;;;;4953317;29;20819;-72
2022/10/19 03:56:08;;;;;;;33.20;30.40;;;15.20;99.90;;;;;;4953196;29;20448;-73
2022/10/19 03:58:36;;;;;;;34.73;31.83;;;15.20;99.90;;;;;;4953149;29;20458;-73
2022/10/19 04:01:07;;;;;;;36.23;32.90;;;15.20;99.90;;;;;;4953337;29;20457;-73
2022/10/19 04:03:34;;;;;;;31.97;28.97;;;15.10;99.90;;;;;;4953392;29;20452;-73
2022/10/19 04:06:06;;;;;;;30.73;28.40;;;15.10;99.90;;;;;;4953028;28;20496;-73
2022/10/19 04:08:33;;;;;;;33.27;30.20;;;15.00;99.90;;;;;;4953074;29;20986;-73
2022/10/19 04:11:00;;;;;;;33.67;30.60;;;14.90;99.90;;;;;;4952958;29;20806;-73
2022/10/19 04:13:29;;;;;;;33.53;30.07;;;14.90;99.90;;;;;;4952281;29;20456;-72
2022/10/19 04:15:56;;;;;;;32.17;29.03;;;14.80;99.90;;;;;;4952715;29;20490;-73
2022/10/19 04:18:23;;;;;;;33.57;30.40;;;14.80;99.90;;;;;;4952767;29;20459;-73
2022/10/19 04:20:55;;;;;;;31.53;29.00;;;14.80;99.90;;;;;;4952975;29;21018;-73
2022/10/19 04:23:22;;;;;;;31.13;28.73;;;14.80;99.90;;;;;;4952111;29;20456;-72
2022/10/19 04:25:49;;;;;;;30.27;27.90;;;14.70;99.90;;;;;;4952684;29;20489;-73
2022/10/19 04:28:15;;;;;;;32.07;29.37;;;14.70;99.90;;;;;;4952684;29;20452;-73
2022/10/19 04:30:44;;;;;;;33.07;30.27;;;14.60;99.90;;;;;;4952539;29;20461;-73
2022/10/19 04:33:10;;;;;;;31.40;28.60;;;14.70;99.90;;;;;;4952359;29;20453;-73
2022/10/19 04:35:37;;;;;;;33.00;30.10;;;14.70;99.90;;;;;;4952358;29;20460;-73
2022/10/19 04:38:04;;;;;;;33.97;31.07;;;14.70;99.90;;;;;;4952817;29;20472;-73
2022/10/19 04:40:30;;;;;;;34.97;31.30;;;14.60;99.90;;;;;;4952585;29;20475;-73
2022/10/19 04:42:58;;;;;;;31.43;28.80;;;14.60;99.90;;;;;;4951410;28;20456;-72
2022/10/19 04:45:24;;;;;;;32.17;29.47;;;14.50;99.90;;;;;;4952145;29;20640;-74
2022/10/19 04:47:55;;;;;;;34.23;30.73;;;14.50;99.90;;;;;;4952286;29;20453;-73
2022/10/19 04:50:22;;;;;;;32.63;29.83;;;14.40;99.90;;;;;;4952284;29;20464;-73
2022/10/19 04:52:48;;;;;;;30.93;28.43;;;14.30;99.90;;;;;;4952400;29;20463;-73
2022/10/19 04:55:15;;;;;;;32.80;29.93;;;14.30;99.90;;;;;;4952305;29;20533;-73
2022/10/19 04:57:42;;;;;;;30.93;28.53;;;14.30;99.90;;;;;;4952037;29;20460;-73
2022/10/19 05:00:10;;;;;;;34.30;31.50;;;14.30;99.90;;;;;;4952189;29;20463;-73
2022/10/19 05:02:37;;;;;;;35.17;31.87;;;14.30;99.90;;;;;;4951939;29;20465;-73
2022/10/19 05:05:06;;;;;;;34.93;31.80;;;14.30;99.90;;;;;;4952230;29;20559;-73
2022/10/19 05:07:32;;;;;;;33.70;31.00;;;14.40;99.90;;;;;;4951810;28;20484;-72
2022/10/19 05:09:59;;;;;;;33.93;30.93;;;14.50;99.90;;;;;;4949984;29;20452;-72
2022/10/19 05:12:26;;;;;;;36.90;33.80;;;14.60;99.90;;;;;;4951649;29;20840;-74
2022/10/19 05:14:52;;;;;;;34.37;31.57;;;14.60;99.90;;;;;;4951646;29;20449;-72
2022/10/19 05:17:19;;;;;;;33.90;31.10;;;14.80;99.90;;;;;;4951953;29;20463;-72
2022/10/19 05:19:46;;;;;;;35.23;32.23;;;14.60;99.90;;;;;;4951802;29;20796;-72
2022/10/19 05:22:14;;;;;;;37.17;33.67;;;14.80;99.90;;;;;;4951552;29;20460;-73
2022/10/19 05:24:41;;;;;;;35.57;32.60;;;14.80;99.90;;;;;;4951402;29;20778;-73
2022/10/19 05:27:07;;;;;;;36.97;33.17;;;14.70;99.90;;;;;;4951410;29;20965;-73
2022/10/19 05:29:34;;;;;;;34.53;31.43;;;14.70;99.90;;;;;;4951775;29;20457;-72
2022/10/19 05:32:01;;;;;;;32.97;30.10;;;14.70;99.90;;;;;;4951620;29;20539;-73
2022/10/19 05:34:27;;;;;;;36.03;32.67;;;14.80;99.90;;;;;;4951420;29;20798;-74
2022/10/19 05:36:55;;;;;;;38.13;34.40;;;14.70;99.90;;;;;;4951250;29;20460;-72
2022/10/19 05:39:24;;;;;;;36.30;33.10;;;14.60;99.90;;;;;;4951086;29;21034;-72
2022/10/19 05:41:50;;;;;;;37.10;33.47;;;14.60;99.90;;;;;;4951629;28;20852;-72
2022/10/19 05:44:20;;;;;;;36.57;32.80;;;14.60;99.90;;;;;;4951420;29;20452;-72
2022/10/19 05:46:47;;;;;;;36.17;33.13;;;14.60;99.90;;;;;;4951248;29;20488;-72
2022/10/19 05:49:16;;;;;;;35.90;32.57;;;14.60;99.90;;;;;;4951134;29;20455;-72
2022/10/19 05:51:43;;;;;;;36.37;33.07;;;14.60;99.90;;;;;;4951168;29;20456;-72
2022/10/19 05:54:11;;;;;;;36.83;33.60;;;14.70;99.90;;;;;;4952515;28;20462;-71
2022/10/19 05:56:40;;;;;;;34.30;31.27;;;14.70;99.90;;;;;;4954718;29;20449;-73
2022/10/19 05:59:08;;;;;;;36.07;32.40;;;14.70;99.90;;;;;;4955226;29;20456;-73
2022/10/19 06:01:35;;;;;;;37.10;33.23;;;14.60;99.90;;;;;;4955329;29;20456;-73
2022/10/19 06:04:02;;;;;;;34.53;31.40;;;14.60;99.90;;;;;;4955230;29;20467;-74
2022/10/19 06:06:31;;;;;;;36.77;33.03;;;14.60;99.90;;;;;;4954603;28;20503;-74
2022/10/19 06:08:58;;;;;;;36.87;33.27;;;14.70;99.90;;;;;;4954780;29;20479;-74
2022/10/19 06:11:27;;;;;;;35.87;32.87;;;14.80;99.90;;;;;;4954518;29;20448;-74
2022/10/19 06:13:57;;;;;;;34.57;31.37;;;14.80;99.90;;;;;;4953118;29;20455;-72
2022/10/19 06:16:24;;;;;;;32.37;29.70;;;14.90;99.90;;;;;;4954915;28;20463;-73
2022/10/19 06:18:52;;;;;;;34.33;31.40;;;15.00;99.90;;;;;;4955177;29;20463;-72
2022/10/19 06:21:21;;;;;;;33.03;30.10;;;15.10;99.90;;;;;;4955188;29;20452;-74
2022/10/19 06:23:50;;;;;;;33.03;30.30;;;15.10;99.90;;;;;;4955064;29;20456;-73
2022/10/19 06:26:17;;;;;;;35.23;32.13;;;15.20;99.90;;;;;;4955161;28;20495;-73
2022/10/19 06:28:44;;;;;;;36.47;33.27;;;15.20;99.90;;;;;;4954755;29;20460;-73
2022/10/19 06:31:13;;;;;;;36.17;33.20;;;15.20;99.90;;;;;;4954617;29;20539;-74
2022/10/19 06:33:41;;;;;;;39.37;35.77;;;15.20;99.90;;;;;;4954512;29;20548;-74
2022/10/19 06:36:09;;;;;;;40.43;36.40;;;15.40;99.90;;;;;;4954620;29;20818;-74
2022/10/19 06:38:36;;;;;;;40.03;36.00;;;15.30;99.90;;;;;;4954706;29;20473;-73
2022/10/19 06:41:03;;;;;;;41.40;37.50;;;15.40;99.90;;;;;;4954914;29;20457;-74
2022/10/19 06:43:30;;;;;;;39.10;35.40;;;15.30;99.90;;;;;;4954560;29;20455;-74
2022/10/19 06:45:56;;;;;;;40.03;36.60;;;15.30;99.90;;;;;;4952694;29;20492;-73
2022/10/19 06:48:25;;;;;;;40.07;36.00;;;15.40;99.90;;;;;;4954210;29;20460;-73
2022/10/19 06:50:56;;;;;;;38.60;35.03;;;15.60;99.90;;;;;;4954247;29;20547;-75
2022/10/19 06:53:23;;;;;;;37.30;33.90;;;15.80;99.90;;;;;;4953921;29;20942;-73
2022/10/19 06:55:49;;;;;;;39.10;35.57;;;15.80;99.90;;;;;;4954323;29;20496;-73
2022/10/19 06:58:16;;;;;;;35.57;32.57;;;15.80;99.90;;;;;;4954137;29;20464;-72
2022/10/19 07:00:43;;;;;;;39.50;35.40;;;15.60;99.90;;;;;;4953900;29;20463;-73
2022/10/19 07:03:09;;;;;;;40.47;36.30;;;15.60;99.90;;;;;;4954069;29;20793;-74
2022/10/19 07:05:37;;;;;;;36.77;33.47;;;15.70;99.90;;;;;;4952682;28;20492;-74
2022/10/19 07:08:04;;;;;;;36.63;33.67;;;15.80;99.90;;;;;;4954034;29;20858;-73
2022/10/19 07:10:31;;;;;;;34.63;31.63;;;15.80;99.90;;;;;;4953923;29;20457;-74
2022/10/19 07:12:58;;;;;;;32.00;29.40;;;15.90;99.90;;;;;;4953669;29;20969;-74
2022/10/19 07:15:24;;;;;;;33.80;30.90;;;15.90;99.90;;;;;;4953662;29;20449;-74
2022/10/19 07:17:53;;;;;;;32.20;29.30;;;15.90;99.90;;;;;;4953561;29;20961;-73
2022/10/19 07:20:19;;;;;;;33.70;30.93;;;15.90;99.90;;;;;;4953704;29;20456;-74
2022/10/19 07:22:47;;;;;;;32.63;30.13;;;15.80;99.90;;;;;;4953575;29;20981;-73
2022/10/19 07:25:14;;;;;;;32.03;29.37;;;15.80;99.90;;;;;;4953359;29;20460;-74
2022/10/19 07:27:41;;;;;;;31.97;29.53;;;16.00;99.90;;;;;;4953345;29;20460;-74
2022/10/19 07:30:08;;;;;;;36.33;33.23;;;16.00;99.90;;;;;;4953411;29;20455;-74
2022/10/19 07:32:35;;;;;;;32.47;29.67;;;16.10;99.90;;;;;;4953498;29;20480;-73
2022/10/19 07:35:01;;;;;;;32.90;30.43;;;16.20;99.90;;;;;;4953479;29;20464;-73
2022/10/19 07:37:28;;;;;;;33.60;31.03;;;16.40;99.90;;;;;;4953166;29;20461;-75
2022/10/19 07:39:56;;;;;;;31.43;29.03;;;16.40;99.90;;;;;;4953134;29;20953;-73
2022/10/19 07:42:23;;;;;;;29.10;27.10;;;16.40;99.90;;;;;;4953071;29;20456;-72
2022/10/19 07:44:49;;;;;;;34.43;31.33;;;16.60;99.90;;;;;;4953278;29;20476;-73
2022/10/19 07:47:16;;;;;;;30.53;28.30;;;16.60;99.90;;;;;;4953121;29;20499;-73
2022/10/19 07:49:43;;;;;;;30.50;27.70;;;16.60;99.90;;;;;;4952999;29;20805;-74
2022/10/19 07:52:10;;;;;;;30.17;27.50;;;16.60;99.90;;;;;;4952902;28;20476;-73
2022/10/19 07:54:36;;;;;;;29.03;26.83;;;16.70;99.90;;;;;;4953370;29;20528;-72
2022/10/19 07:57:04;;;;;;;27.93;26.00;;;16.90;99.90;;;;;;4953386;29;20444;-74
2022/10/19 07:59:31;;;;;;;27.33;25.17;;;17.10;99.90;;;;;;4953378;28;20461;-72
2022/10/19 08:02:01;;;;;;;27.70;25.60;;;17.10;99.90;;;;;;4953190;29;20452;-72
2022/10/19 08:04:27;;;;;;;27.20;25.33;;;17.20;99.90;;;;;;4953093;29;20461;-73
2022/10/19 08:06:54;;;;;;;26.93;25.00;;;17.40;99.90;;;;;;4952698;28;20501;-74
2022/10/19 08:09:21;;;;;;;26.03;24.23;;;17.30;99.90;;;;;;4952730;29;20487;-73
2022/10/19 08:11:47;;;;;;;25.27;23.43;;;17.40;99.90;;;;;;4953015;29;20456;-73
2022/10/19 08:14:15;;;;;;;25.20;23.53;;;17.30;99.90;;;;;;4952808;29;20449;-74
2022/10/19 08:16:43;;;;;;;29.03;26.93;;;17.30;99.90;;;;;;4952465;28;20801;-72
2022/10/19 08:19:11;;;;;;;26.37;24.50;;;17.30;99.90;;;;;;4952569;29;21241;-72
2022/10/19 08:21:39;;;;;;;28.23;26.23;;;17.20;99.90;;;;;;4952347;29;20939;-73
2022/10/19 08:24:07;;;;;;;26.83;24.73;;;17.20;99.90;;;;;;4952708;28;20472;-73
2022/10/19 08:26:37;;;;;;;27.77;25.43;;;17.30;99.90;;;;;;4952787;29;20499;-74
2022/10/19 08:29:06;;;;;;;26.83;24.97;;;17.40;99.90;;;;;;4952783;29;20460;-74
2022/10/19 08:31:34;;;;;;;27.47;25.30;;;17.40;99.90;;;;;;4952686;29;20452;-74
2022/10/19 08:34:01;;;;;;;26.97;25.03;;;17.30;99.90;;;;;;4952640;29;20461;-74
2022/10/19 08:36:31;;;;;;;26.13;24.43;;;17.20;99.90;;;;;;4952338;29;20445;-74
2022/10/19 08:38:58;;;;;;;28.33;25.50;;;17.10;99.90;;;;;;4952257;29;20461;-74
2022/10/19 08:41:33;;;;;;;31.07;28.17;;;17.10;99.90;;;;;;4952325;29;20852;-74
2022/10/19 08:44:20;;;;;;;27.03;24.93;;;17.00;99.90;;;;;;4952513;29;20765;-74
2022/10/19 08:46:56;;;;;;;22.77;21.10;;;17.00;99.90;;;;;;4952662;29;20851;-74
2022/10/19 08:49:26;;;;;;;22.83;21.33;;;17.20;99.90;;;;;;4952432;29;20813;-75
2022/10/19 08:51:57;;;;;;;23.50;22.07;;;17.40;99.90;;;;;;4952289;29;20452;-74
2022/10/19 08:54:27;;;;;;;19.50;18.30;;;17.40;99.90;;;;;;4952267;29;20455;-74
2022/10/19 08:57:05;;;;;;;22.70;21.10;;;17.50;99.90;;;;;;4952125;29;20455;-74
2022/10/19 08:59:38;;;;;;;20.43;19.13;;;17.50;99.90;;;;;;4952330;29;20463;-74
2022/10/19 09:02:13;;;;;;;20.97;19.47;;;17.50;99.90;;;;;;4952528;29;20463;-74
2022/10/19 09:04:45;;;;;;;21.10;19.50;;;17.50;99.90;;;;;;4951831;29;20818;-74
2022/10/19 09:07:31;;;;;;;18.47;17.27;;;17.40;99.90;;;;;;4951456;28;20515;-73
2022/10/19 09:10:02;;;;;;;19.43;18.33;;;17.50;99.90;;;;;;4951856;29;20821;-72
2022/10/19 09:12:40;;;;;;;19.10;17.97;;;17.50;99.90;;;;;;4952087;29;20851;-73
2022/10/19 09:15:12;;;;;;;21.37;19.77;;;17.50;99.90;;;;;;4951992;29;20459;-73
2022/10/19 09:17:40;;;;;;;20.47;19.27;;;17.40;99.90;;;;;;4951905;29;20455;-73
2022/10/19 09:20:16;;;;;;;20.60;19.37;;;17.40;99.90;;;;;;4951749;29;20954;-75
2022/10/19 09:22:43;;;;;;;19.60;18.50;;;17.50;99.90;;;;;;4952002;29;20452;-72
2022/10/19 09:25:18;;;;;;;19.70;18.40;;;17.70;99.90;;;;;;4951687;29;20515;-74
2022/10/19 09:27:48;;;;;;;18.30;17.40;;;17.60;99.90;;;;;;4952030;28;20510;-74
2022/10/19 09:30:19;;;;;;;18.10;16.90;;;17.50;99.90;;;;;;4951672;29;20449;-74
2022/10/19 09:32:49;;;;;;;19.23;18.23;;;17.80;99.90;;;;;;4952227;29;20519;-74
2022/10/19 09:35:26;;;;;;;19.30;18.27;;;18.00;99.90;;;;;;4952395;29;20448;-73
2022/10/19 09:37:53;;;;;;;17.40;16.30;;;18.10;99.90;;;;;;4951609;28;20497;-74
2022/10/19 09:40:23;;;;;;;17.70;16.70;;;18.30;99.90;;;;;;4951378;28;20476;-74
2022/10/19 09:42:55;;;;;;;18.20;17.10;;;18.10;99.90;;;;;;4952212;29;20456;-72
2022/10/19 09:45:32;;;;;;;19.43;17.87;;;18.00;99.90;;;;;;4952085;29;20452;-74
2022/10/19 09:48:02;;;;;;;16.83;16.00;;;18.10;99.90;;;;;;4951974;29;20492;-73
2022/10/19 09:50:30;;;;;;;16.27;15.50;;;18.00;99.90;;;;;;4951621;29;20449;-73
2022/10/19 09:52:58;;;;;;;16.13;15.43;;;18.00;99.90;;;;;;4951875;29;20841;-74
2022/10/19 09:55:29;;;;;;;16.37;15.20;;;18.10;99.90;;;;;;4951792;29;20476;-74
2022/10/19 09:58:02;;;;;;;15.80;14.60;;;18.20;99.90;;;;;;4951833;29;20590;-74
2022/10/19 10:00:36;;;;;;;15.80;14.70;;;18.30;99.90;;;;;;4951801;29;20459;-74
2022/10/19 10:03:05;;;;;;;16.00;15.23;;;18.20;99.90;;;;;;4950629;29;20457;-75
2022/10/19 10:05:34;;;;;;;16.03;15.23;;;18.10;99.90;;;;;;4951437;28;20476;-74
2022/10/19 10:08:02;;;;;;;16.63;15.83;;;18.10;99.90;;;;;;4951341;29;20492;-74
2022/10/19 10:10:33;;;;;;;17.60;16.50;;;17.90;99.90;;;;;;4951224;29;20826;-74
2022/10/19 10:13:01;;;;;;;15.87;15.07;;;17.90;99.90;;;;;;4951609;29;20456;-73
2022/10/19 10:15:30;;;;;;;17.87;16.87;;;17.90;99.90;;;;;;4951709;29;20457;-74
2022/10/19 10:17:58;;;;;;;16.00;15.00;;;17.90;99.90;;;;;;4950864;28;20456;-72
2022/10/19 10:20:31;;;;;;;16.40;15.40;;;17.90;99.90;;;;;;4950871;29;20456;-74
2022/10/19 10:22:59;;;;;;;15.63;14.93;;;17.90;99.90;;;;;;4951678;29;20452;-74
2022/10/19 10:25:28;;;;;;;14.33;13.73;;;17.80;99.90;;;;;;4951540;28;20673;-75
2022/10/19 10:27:58;;;;;;;14.43;13.73;;;17.90;99.90;;;;;;4951402;29;20497;-73
2022/10/19 10:30:28;;;;;;;14.70;14.10;;;18.00;99.90;;;;;;4951492;29;20460;-73
2022/10/19 10:32:56;;;;;;;15.20;14.33;;;18.00;99.90;;;;;;4951131;29;20459;-73
2022/10/19 10:35:30;;;;;;;14.27;13.57;;;18.20;99.90;;;;;;4950343;29;20452;-73
2022/10/19 10:38:06;;;;;;;15.00;14.40;;;18.30;99.90;;;;;;4951366;29;20559;-74
2022/10/19 10:40:32;;;;;;;13.80;13.10;;;18.60;99.90;;;;;;4952366;28;20854;-74
2022/10/19 10:43:05;;;;;;;14.83;14.10;;;18.80;99.90;;;;;;4954803;28;20460;-73
2022/10/19 10:45:38;;;;;;;14.53;13.70;;;18.60;99.90;;;;;;4955179;29;20935;-73
2022/10/19 10:48:18;;;;;;;15.00;14.30;;;19.00;99.90;;;;;;4955201;29;20496;-72
2022/10/19 10:50:47;;;;;;;14.70;14.00;;;19.00;99.90;;;;;;4954189;29;20468;-74
2022/10/19 10:53:34;;;;;;;14.43;13.73;;;19.00;99.90;;;;;;4954165;28;20902;-72
2022/10/19 10:56:01;;;;;;;14.33;13.63;;;19.60;99.90;;;;;;4954835;29;20456;-72
2022/10/19 10:58:36;;;;;;;12.43;11.73;;;19.80;99.90;;;;;;4954551;29;20455;-73
2022/10/19 11:01:07;;;;;;;12.60;12.10;;;19.90;99.90;;;;;;4954904;29;20491;-73
2022/10/19 11:03:39;;;;;;;13.90;13.20;;;20.20;99.90;;;;;;4954545;29;20452;-73
2022/10/19 11:06:09;;;;;;;14.00;13.20;;;20.50;99.90;;;;;;4954126;28;20908;-73
2022/10/19 11:08:49;;;;;;;13.07;12.47;;;20.90;99.90;;;;;;4954374;29;20488;-74
2022/10/19 11:11:20;;;;;;;13.90;13.20;;;21.10;99.90;;;;;;4954603;29;20448;-74
2022/10/19 11:13:52;;;;;;;14.33;13.73;;;20.90;99.90;;;;;;4954409;29;20460;-74
2022/10/19 11:16:23;;;;;;;13.43;12.53;;;20.70;99.90;;;;;;4954589;29;20448;-74
2022/10/19 11:18:54;;;;;;;13.70;13.10;;;20.30;99.90;;;;;;4953932;29;20456;-74
2022/10/19 11:21:31;;;;;;;13.37;12.77;;;20.10;99.90;;;;;;4953724;29;20448;-74
2022/10/19 11:24:10;;;;;;;14.70;14.00;;;19.90;99.90;;;;;;4954019;29;20958;-73
2022/10/19 11:26:56;;;;;;;13.90;13.20;;;19.90;99.90;;;;;;4954050;29;20488;-74
2022/10/19 11:29:39;;;;;;;13.83;13.13;;;19.90;99.90;;;;;;4954107;29;20452;-74
2022/10/19 11:32:14;;;;;;;14.03;13.40;;;19.80;99.90;;;;;;4953626;29;20475;-74
2022/10/19 11:35:15;;;;;;;13.60;12.40;;;19.90;99.90;;;;;;4953710;29;21000;-71
2022/10/19 11:37:56;;;;;;;14.00;13.40;;;20.10;99.90;;;;;;4950558;29;20455;-73
2022/10/19 11:40:28;;;;;;;12.50;11.90;;;20.00;99.90;;;;;;4953639;29;20455;-73
2022/10/19 11:43:03;;;;;;;14.13;13.43;;;19.90;99.90;;;;;;4953330;29;20547;-73
2022/10/19 11:45:51;;;;;;;13.47;12.80;;;19.80;99.90;;;;;;4953686;29;20798;-73
2022/10/19 11:48:59;;;;;;;14.30;13.50;;;19.80;99.90;;;;;;4953642;28;20495;-73
2022/10/19 11:51:34;;;;;;;13.87;13.07;;;19.60;99.90;;;;;;4917998;28;20445;-73
2022/10/19 11:54:19;;;;;;;13.73;13.13;;;19.80;99.90;;;;;;4952878;28;20851;-73
2022/10/19 11:56:50;;;;;;;14.13;13.30;;;19.90;99.90;;;;;;4953141;29;20441;-74
2022/10/19 11:59:25;;;;;;;13.13;12.53;;;20.00;99.90;;;;;;4951759;29;20456;-73
2022/10/19 12:02:01;;;;;;;14.37;13.67;;;20.20;99.90;;;;;;4942512;28;20440;-73
2022/10/19 12:04:41;;;;;;;13.40;12.80;;;20.00;99.90;;;;;;4944711;28;20453;-73
2022/10/19 12:07:33;;;;;;;14.80;14.10;;;19.90;99.90;;;;;;4933454;29;20489;-73
2022/10/19 12:10:15;;;;;;;13.80;13.10;;;19.90;99.90;;;;;;4951516;28;20460;-73
2022/10/19 12:12:45;;;;;;;14.30;13.37;;;19.80;99.90;;;;;;4952577;28;20805;-74
2022/10/19 12:15:20;;;;;;;14.67;13.97;;;19.60;99.90;;;;;;4952416;28;20460;-73
2022/10/19 12:17:50;;;;;;;15.43;14.43;;;19.60;99.90;;;;;;4940283;28;20449;-74
2022/10/19 12:20:24;;;;;;;14.83;14.13;;;19.40;99.90;;;;;;4933411;29;20476;-73
2022/10/19 12:22:51;;;;;;;15.20;14.37;;;19.40;99.90;;;;;;4933516;29;20464;-73
2022/10/19 12:25:20;;;;;;;14.60;13.90;;;19.20;99.90;;;;;;4933576;29;20461;-74
2022/10/19 12:27:49;;;;;;;14.30;13.60;;;19.30;99.90;;;;;;4933430;29;20493;-73
2022/10/19 12:30:19;;;;;;;14.57;13.73;;;19.30;99.90;;;;;;4933661;29;20477;-73
2022/10/19 12:32:55;;;;;;;14.73;13.97;;;19.20;99.90;;;;;;4933750;29;20450;-74
2022/10/19 12:35:34;;;;;;;15.57;14.67;;;19.10;99.90;;;;;;4949398;28;20559;-73
2022/10/19 12:38:10;;;;;;;14.63;13.90;;;18.90;99.90;;;;;;4952529;28;20448;-73
2022/10/19 12:40:44;;;;;;;14.40;13.37;;;18.80;99.90;;;;;;4952853;28;20519;-73
2022/10/19 12:43:16;;;;;;;14.23;13.53;;;19.10;99.90;;;;;;4952359;28;20507;-74
2022/10/19 12:45:49;;;;;;;13.10;12.40;;;19.90;99.90;;;;;;4951957;28;20460;-74
2022/10/19 12:48:24;;;;;;;14.13;13.20;;;20.90;99.90;;;;;;4952211;28;20496;-74
2022/10/19 12:51:19;;;;;;;12.97;12.43;;;21.70;99.90;;;;;;4951427;28;20877;-74
2022/10/19 12:53:48;;;;;;;14.93;13.90;;;21.90;99.90;;;;;;4952399;28;20469;-73
2022/10/19 12:56:22;;;;;;;13.90;13.00;;;21.60;99.90;;;;;;4952062;28;20966;-73
2022/10/19 12:58:55;;;;;;;12.97;12.37;;;21.50;99.90;;;;;;4952034;28;20834;-74
2022/10/19 13:01:25;;;;;;;13.70;13.00;;;21.30;99.90;;;;;;4952187;28;20482;-73
2022/10/19 13:04:06;;;;;;;16.17;15.33;;;21.20;99.90;;;;;;4950935;28;20456;-73
2022/10/19 13:06:35;;;;;;;12.77;11.97;;;21.20;99.90;;;;;;4952201;28;20531;-73
2022/10/19 13:09:04;;;;;;;15.03;14.13;;;21.20;99.90;;;;;;4939175;29;20484;-74
2022/10/19 13:11:33;;;;;;;14.00;13.30;;;20.80;99.90;;;;;;4933237;29;20464;-76
2022/10/19 13:14:03;;;;;;;14.13;13.33;;;20.50;99.90;;;;;;4932662;29;20453;-74
2022/10/19 13:17:01;;;;;;;14.10;13.40;;;20.00;99.90;;;;;;4932752;29;20738;-72
2022/10/19 13:19:28;;;;;;;12.77;12.03;;;19.50;99.90;;;;;;4931217;29;20465;-74
2022/10/19 13:22:18;;;;;;;14.37;13.57;;;19.30;99.90;;;;;;4932740;29;20453;-73
2022/10/19 13:25:28;;;;;;;12.93;12.33;;;19.30;99.90;;;;;;4932922;29;20458;-74
2022/10/19 13:28:00;;;;;;;14.00;13.10;;;19.20;99.90;;;;;;4913491;29;20525;-72
2022/10/19 13:31:00;;;;;;;13.30;12.50;;;19.20;99.90;;;;;;4932900;29;20481;-73
2022/10/19 13:33:46;;;;;;;13.37;12.70;;;19.20;99.90;;;;;;4931819;29;20564;-74
2022/10/19 13:36:13;;;;;;;15.90;14.57;;;19.40;99.90;;;;;;4927747;29;20458;-74
2022/10/19 13:38:41;;;;;;;13.23;12.53;;;19.40;99.90;;;;;;4932318;29;20450;-74
2022/10/19 13:41:18;;;;;;;13.90;13.20;;;19.40;99.90;;;;;;4932303;29;20967;-73
2022/10/19 13:44:00;;;;;;;13.27;12.57;;;19.20;99.90;;;;;;4932120;29;20808;-72
2022/10/19 13:46:43;;;;;;;13.03;12.40;;;19.20;99.90;;;;;;4932070;29;20747;-75
2022/10/19 13:49:30;;;;;;;14.50;13.60;;;19.10;99.90;;;;;;4931741;29;20500;-74
2022/10/19 13:52:09;;;;;;;12.80;12.30;;;19.20;99.90;;;;;;4932004;29;20449;-73
2022/10/19 13:54:52;;;;;;;14.87;13.73;;;19.20;99.90;;;;;;4932403;29;20954;-74
2022/10/19 13:57:23;;;;;;;14.20;13.50;;;19.10;99.90;;;;;;4932478;29;20472;-74
2022/10/19 14:00:09;;;;;;;13.40;12.70;;;19.00;99.90;;;;;;4932447;29;20479;-73
2022/10/19 14:02:55;;;;;;;14.77;14.07;;;18.90;99.90;;;;;;4932507;29;20517;-74
2022/10/19 14:06:02;;;;;;;14.03;13.40;;;18.90;99.90;;;;;;4931694;29;20809;-74
2022/10/19 14:08:54;;;;;;;14.30;13.53;;;19.10;99.90;;;;;;4932573;28;20499;-74
2022/10/19 14:11:26;;;;;;;13.57;12.90;;;19.10;99.90;;;;;;4948008;28;20471;-72
2022/10/19 14:14:12;;;;;;;13.20;12.60;;;18.90;99.90;;;;;;4942102;29;20464;-74
2022/10/19 14:16:49;;;;;;;13.87;13.10;;;19.00;99.90;;;;;;4945527;29;20475;-73
2022/10/19 14:19:25;;;;;;;13.97;13.37;;;18.90;99.90;;;;;;4945600;29;20551;-72
2022/10/19 14:21:53;;;;;;;12.10;11.60;;;18.90;99.90;;;;;;4945658;29;21657;-74
2022/10/19 14:24:21;;;;;;;13.17;12.60;;;18.90;99.90;;;;;;4945881;29;20551;-74
2022/10/19 14:26:48;;;;;;;14.20;13.30;;;19.00;99.90;;;;;;4945178;28;20461;-73
2022/10/19 14:29:14;;;;;;;14.07;13.37;;;18.80;99.90;;;;;;4943228;29;20481;-74
2022/10/19 14:31:42;;;;;;;13.20;12.57;;;18.80;99.90;;;;;;4944987;29;20456;-74
2022/10/19 14:34:10;;;;;;;13.37;12.87;;;18.80;99.90;;;;;;4944759;28;20481;-74
2022/10/19 14:36:39;;;;;;;14.73;14.00;;;18.90;99.90;;;;;;4943337;29;20954;-74
2022/10/19 14:39:07;;;;;;;13.30;12.70;;;18.80;99.90;;;;;;4944157;29;20452;-73
2022/10/19 14:41:36;;;;;;;15.20;14.40;;;18.80;99.90;;;;;;4945466;29;20507;-74
2022/10/19 14:44:28;;;;;;;16.10;15.17;;;18.70;99.90;;;;;;4943746;29;20568;-73
2022/10/19 14:46:56;;;;;;;14.33;13.43;;;18.60;99.90;;;;;;4947829;29;20957;-73
2022/10/19 14:49:24;;;;;;;15.60;14.90;;;18.50;99.90;;;;;;4943169;29;20505;-73
2022/10/19 14:51:54;;;;;;;15.63;14.50;;;18.50;99.90;;;;;;4943367;29;20456;-75
2022/10/19 14:54:27;;;;;;;16.30;15.27;;;18.50;99.90;;;;;;4945087;29;20447;-75
2022/10/19 14:56:59;;;;;;;17.03;16.13;;;18.40;99.90;;;;;;4944994;29;20501;-74
2022/10/19 14:59:29;;;;;;;16.70;15.80;;;18.40;99.90;;;;;;4944061;29;20449;-74
2022/10/19 15:01:59;;;;;;;16.17;15.30;;;18.40;99.90;;;;;;4942905;29;20452;-73
2022/10/19 15:04:30;;;;;;;15.40;14.60;;;18.30;99.90;;;;;;4936077;29;20453;-73
2022/10/19 15:06:59;;;;;;;15.87;15.10;;;18.50;99.90;;;;;;4936590;29;20477;-72
2022/10/19 15:09:29;;;;;;;15.87;15.07;;;18.50;99.90;;;;;;4948204;29;20492;-74
2022/10/19 15:11:59;;;;;;;15.40;14.70;;;18.50;99.90;;;;;;4952775;29;20519;-75
2022/10/19 15:14:29;;;;;;;16.17;15.47;;;18.50;99.90;;;;;;4953100;29;20467;-73
2022/10/19 15:16:58;;;;;;;15.10;14.40;;;18.40;99.90;;;;;;4953095;29;20452;-73
2022/10/19 15:19:30;;;;;;;16.20;15.30;;;18.40;99.90;;;;;;4952925;29;20448;-73
2022/10/19 15:22:15;;;;;;;16.57;15.80;;;18.40;99.90;;;;;;4953115;29;20456;-73
2022/10/19 15:24:55;;;;;;;17.27;16.37;;;18.30;99.90;;;;;;4953125;29;20718;-73
2022/10/19 15:27:28;;;;;;;17.53;16.43;;;18.20;99.90;;;;;;4952218;28;20448;-73
2022/10/19 15:29:56;;;;;;;17.23;16.33;;;18.20;99.90;;;;;;4953250;29;21025;-73
2022/10/19 15:32:27;;;;;;;17.37;16.37;;;18.10;99.90;;;;;;4953216;29;20455;-73
2022/10/19 15:34:55;;;;;;;16.70;15.90;;;18.10;99.90;;;;;;4953186;29;20488;-73
2022/10/19 15:37:23;;;;;;;17.90;17.00;;;18.10;99.90;;;;;;4952980;29;20464;-73
2022/10/19 15:39:51;;;;;;;17.60;16.70;;;18.00;99.90;;;;;;4953071;29;20819;-74
2022/10/19 15:42:22;;;;;;;18.23;17.23;;;17.90;99.90;;;;;;4952943;29;20448;-73
2022/10/19 15:44:49;;;;;;;17.80;16.90;;;17.80;99.90;;;;;;4953083;29;20977;-75
2022/10/19 15:47:23;;;;;;;17.10;16.10;;;17.90;99.90;;;;;;4953000;29;21041;-74
2022/10/19 15:49:57;;;;;;;16.67;15.80;;;17.80;99.90;;;;;;4952723;29;20809;-73
2022/10/19 15:52:25;;;;;;;16.27;15.33;;;17.70;99.90;;;;;;4952511;29;20455;-73
2022/10/19 15:54:54;;;;;;;17.57;16.57;;;17.70;99.90;;;;;;4952615;29;20456;-73